sensor_id;sensor_type;location;lat;lon;timestamp;temperature;humidity
14737;DHT22;7459;53.590;10.062;2023-04-19T00:01:36;7.50;99.90
14737;DHT22;7459;53.590;10.062;2023-04-19T00:04:02;7.50;99.90
14737;DHT22;7459;53.590;10.062;2023-04-19T00:06:27;7.50;99.90
14737;DHT22;7459;53.590;10.062;2023-04-19T00:08:55;7.50;99.90
14737;DHT22;7459;53.590;10.062;2023-04-19T00:11:22;7.40;99.90
14737;DHT22;7459;53.590;10.062;2023-04-19T00:13:48;7.40;99.90
14737;DHT22;7459;53.590;10.062;2023-04-19T00:16:14;7.40;99.90
14737;DHT22;7459;53.590;10.062;2023-04-19T00:18:40;7.30;99.90
14737;DHT22;7459;53.590;10.062;2023-04-19T00:21:07;7.30;99.90
14737;DHT22;7459;53.590;10.062;2023-04-19T00:23:33;7.30;99.90
14737;DHT22;7459;53.590;10.062;2023-04-19T00:26:02;7.20;99.90
14737;DHT22;7459;53.590;10.062;2023-04-19T00:28:28;7.20;99.90
14737;DHT22;7459;53.590;10.062;2023-04-19T00:30:55;7.20;99.90
14737;DHT22;7459;53.590;10.062;2023-04-19T00:33:21;7.30;99.90
14737;DHT22;7459;53.590;10.062;2023-04-19T00:35:46;7.20;99.90
14737;DHT22;7459;53.590;10.062;2023-04-19T00:38:12;7.30;99.90
14737;DHT22;7459;53.590;10.062;2023-04-19T00:40:38;7.30;99.90
14737;DHT22;7459;53.590;10.062;2023-04-19T00:43:03;7.30;99.90
14737;DHT22;7459;53.590;10.062;2023-04-19T00:45:31;7.10;99.90
14737;DHT22;7459;53.590;10.062;2023-04-19T00:47:59;7.10;99.90
14737;DHT22;7459;53.590;10.062;2023-04-19T00:50:25;7.10;99.90
14737;DHT22;7459;53.590;10.062;2023-04-19T00:52:53;7.10;99.90
14737;DHT22;7459;53.590;10.062;2023-04-19T00:55:20;7.10;99.90
14737;DHT22;7459;53.590;10.062;2023-04-19T00:57:47;7.10;99.90
14737;DHT22;7459;53.590;10.062;2023-04-19T01:00:13;7.10;99.90
14737;DHT22;7459;53.590;10.062;2023-04-19T01:02:39;7.10;99.90
14737;DHT22;7459;53.590;10.062;2023-04-19T01:05:05;7.10;99.90
14737;DHT22;7459;53.590;10.062;2023-04-19T01:07:32;7.10;99.90
14737;DHT22;7459;53.590;10.062;2023-04-19T01:09:59;7.10;99.90
14737;DHT22;7459;53.590;10.062;2023-04-19T01:12:24;7.10;99.90
14737;DHT22;7459;53.590;10.062;2023-04-19T01:14:50;7.00;99.90
14737;DHT22;7459;53.590;10.062;2023-04-19T01:17:17;6.90;99.90
14737;DHT22;7459;53.590;10.062;2023-04-19T01:19:43;6.90;99.90
14737;DHT22;7459;53.590;10.062;2023-04-19T01:22:13;6.90;99.90
14737;DHT22;7459;53.590;10.062;2023-04-19T01:24:40;6.90;99.90
14737;DHT22;7459;53.590;10.062;2023-04-19T01:27:06;6.80;99.90
14737;DHT22;7459;53.590;10.062;2023-04-19T01:29:32;6.80;99.90
14737;DHT22;7459;53.590;10.062;2023-04-19T01:31:57;6.80;99.90
14737;DHT22;7459;53.590;10.062;2023-04-19T01:34:23;6.80;99.90
14737;DHT22;7459;53.590;10.062;2023-04-19T01:36:49;6.90;99.90
14737;DHT22;7459;53.590;10.062;2023-04-19T01:39:14;6.80;99.90
14737;DHT22;7459;53.590;10.062;2023-04-19T01:41:40;6.80;99.90
14737;DHT22;7459;53.590;10.062;2023-04-19T01:44:06;6.80;99.90
14737;DHT22;7459;53.590;10.062;2023-04-19T01:46:32;6.80;99.90
14737;DHT22;7459;53.590;10.062;2023-04-19T01:48:57;6.90;99.90
14737;DHT22;7459;53.590;10.062;2023-04-19T01:51:23;6.90;99.90
14737;DHT22;7459;53.590;10.062;2023-04-19T01:53:49;6.90;99.90
14737;DHT22;7459;53.590;10.062;2023-04-19T01:56:18;6.90;99.90
14737;DHT22;7459;53.590;10.062;2023-04-19T01:58:44;7.00;99.90
14737;DHT22;7459;53.590;10.062;2023-04-19T02:01:10;7.00;99.90
14737;DHT22;7459;53.590;10.062;2023-04-19T02:03:38;6.90;99.90
14737;DHT22;7459;53.590;10.062;2023-04-19T02:06:04;7.00;99.90
14737;DHT22;7459;53.590;10.062;2023-04-19T02:08:30;7.00;99.90
14737;DHT22;7459;53.590;10.062;2023-04-19T02:10:56;7.00;99.90
14737;DHT22;7459;53.590;10.062;2023-04-19T02:13:22;7.00;99.90
14737;DHT22;7459;53.590;10.062;2023-04-19T02:15:47;7.00;99.90
14737;DHT22;7459;53.590;10.062;2023-04-19T02:18:13;7.00;99.90
14737;DHT22;7459;53.590;10.062;2023-04-19T02:20:39;7.00;99.90
14737;DHT22;7459;53.590;10.062;2023-04-19T02:23:05;7.10;99.90
14737;DHT22;7459;53.590;10.062;2023-04-19T02:25:31;7.10;99.90
14737;DHT22;7459;53.590;10.062;2023-04-19T02:27:56;7.00;99.90
14737;DHT22;7459;53.590;10.062;2023-04-19T02:30:22;7.00;99.90
14737;DHT22;7459;53.590;10.062;2023-04-19T02:32:48;7.00;99.90
14737;DHT22;7459;53.590;10.062;2023-04-19T02:35:14;7.00;99.90
14737;DHT22;7459;53.590;10.062;2023-04-19T02:37:41;7.00;99.90
14737;DHT22;7459;53.590;10.062;2023-04-19T02:40:08;6.90;99.90
14737;DHT22;7459;53.590;10.062;2023-04-19T02:42:34;6.90;99.90
14737;DHT22;7459;53.590;10.062;2023-04-19T02:45:00;6.90;99.90
14737;DHT22;7459;53.590;10.062;2023-04-19T02:47:26;6.90;99.90
14737;DHT22;7459;53.590;10.062;2023-04-19T02:49:51;6.80;99.90
14737;DHT22;7459;53.590;10.062;2023-04-19T02:52:17;6.80;99.90
14737;DHT22;7459;53.590;10.062;2023-04-19T02:54:43;6.80;99.90
14737;DHT22;7459;53.590;10.062;2023-04-19T02:57:09;6.80;99.90
14737;DHT22;7459;53.590;10.062;2023-04-19T02:59:34;6.80;99.90
14737;DHT22;7459;53.590;10.062;2023-04-19T03:02:00;6.80;99.90
14737;DHT22;7459;53.590;10.062;2023-04-19T03:04:26;6.80;99.90
14737;DHT22;7459;53.590;10.062;2023-04-19T03:06:53;6.80;99.90
14737;DHT22;7459;53.590;10.062;2023-04-19T03:09:18;6.70;99.90
14737;DHT22;7459;53.590;10.062;2023-04-19T03:11:44;6.80;99.90
14737;DHT22;7459;53.590;10.062;2023-04-19T03:14:10;6.70;99.90
14737;DHT22;7459;53.590;10.062;2023-04-19T03:16:35;6.80;99.90
14737;DHT22;7459;53.590;10.062;2023-04-19T03:19:02;6.80;99.90
14737;DHT22;7459;53.590;10.062;2023-04-19T03:21:28;6.70;99.90
14737;DHT22;7459;53.590;10.062;2023-04-19T03:23:54;6.70;99.90
14737;DHT22;7459;53.590;10.062;2023-04-19T03:26:20;6.60;99.90
14737;DHT22;7459;53.590;10.062;2023-04-19T03:28:46;6.60;99.90
14737;DHT22;7459;53.590;10.062;2023-04-19T03:31:12;6.50;99.90
14737;DHT22;7459;53.590;10.062;2023-04-19T03:33:38;6.50;99.90
14737;DHT22;7459;53.590;10.062;2023-04-19T03:36:04;6.50;99.90
14737;DHT22;7459;53.590;10.062;2023-04-19T03:38:31;6.40;99.90
14737;DHT22;7459;53.590;10.062;2023-04-19T03:40:56;6.30;99.90
14737;DHT22;7459;53.590;10.062;2023-04-19T03:43:22;6.30;99.90
14737;DHT22;7459;53.590;10.062;2023-04-19T03:45:51;6.30;99.90
14737;DHT22;7459;53.590;10.062;2023-04-19T03:48:16;6.30;99.90
14737;DHT22;7459;53.590;10.062;2023-04-19T03:50:42;6.20;99.90
14737;DHT22;7459;53.590;10.062;2023-04-19T03:53:08;6.20;99.90
14737;DHT22;7459;53.590;10.062;2023-04-19T03:55:33;6.10;99.90
14737;DHT22;7459;53.590;10.062;2023-04-19T03:57:59;6.10;99.90
14737;DHT22;7459;53.590;10.062;2023-04-19T04:00:25;6.10;99.90
14737;DHT22;7459;53.590;10.062;2023-04-19T04:02:51;6.10;99.90
14737;DHT22;7459;53.590;10.062;2023-04-19T04:05:17;6.10;99.90
14737;DHT22;7459;53.590;10.062;2023-04-19T04:07:43;6.10;99.90
14737;DHT22;7459;53.590;10.062;2023-04-19T04:10:09;6.10;99.90
14737;DHT22;7459;53.590;10.062;2023-04-19T04:12:34;6.00;99.90
14737;DHT22;7459;53.590;10.062;2023-04-19T04:15:01;6.10;99.90
14737;DHT22;7459;53.590;10.062;2023-04-19T04:17:26;6.00;99.90
14737;DHT22;7459;53.590;10.062;2023-04-19T04:19:52;6.10;99.90
14737;DHT22;7459;53.590;10.062;2023-04-19T04:22:18;6.00;99.90
14737;DHT22;7459;53.590;10.062;2023-04-19T04:24:44;6.10;99.90
14737;DHT22;7459;53.590;10.062;2023-04-19T04:27:10;6.10;99.90
14737;DHT22;7459;53.590;10.062;2023-04-19T04:29:36;6.10;99.90
14737;DHT22;7459;53.590;10.062;2023-04-19T04:32:06;6.20;99.90
14737;DHT22;7459;53.590;10.062;2023-04-19T04:34:33;6.20;99.90
14737;DHT22;7459;53.590;10.062;2023-04-19T04:37:00;6.10;99.90
14737;DHT22;7459;53.590;10.062;2023-04-19T04:39:26;6.10;99.90
14737;DHT22;7459;53.590;10.062;2023-04-19T04:41:52;6.20;99.90
14737;DHT22;7459;53.590;10.062;2023-04-19T04:44:18;6.30;99.90
14737;DHT22;7459;53.590;10.062;2023-04-19T04:46:45;6.30;99.90
14737;DHT22;7459;53.590;10.062;2023-04-19T04:49:11;6.30;99.90
14737;DHT22;7459;53.590;10.062;2023-04-19T04:51:37;6.20;99.90
14737;DHT22;7459;53.590;10.062;2023-04-19T04:54:02;6.30;99.90
14737;DHT22;7459;53.590;10.062;2023-04-19T04:56:29;6.30;99.90
14737;DHT22;7459;53.590;10.062;2023-04-19T04:58:55;6.30;99.90
14737;DHT22;7459;53.590;10.062;2023-04-19T05:01:22;6.30;99.90
14737;DHT22;7459;53.590;10.062;2023-04-19T05:03:48;6.30;99.90
14737;DHT22;7459;53.590;10.062;2023-04-19T05:06:15;6.30;99.90
14737;DHT22;7459;53.590;10.062;2023-04-19T05:08:41;6.40;99.90
14737;DHT22;7459;53.590;10.062;2023-04-19T05:11:06;6.30;99.90
14737;DHT22;7459;53.590;10.062;2023-04-19T05:13:33;6.40;99.90
14737;DHT22;7459;53.590;10.062;2023-04-19T05:15:58;6.40;99.90
14737;DHT22;7459;53.590;10.062;2023-04-19T05:18:24;6.40;99.90
14737;DHT22;7459;53.590;10.062;2023-04-19T05:20:50;6.50;99.90
14737;DHT22;7459;53.590;10.062;2023-04-19T05:23:15;6.50;99.90
14737;DHT22;7459;53.590;10.062;2023-04-19T05:25:41;6.50;99.90
14737;DHT22;7459;53.590;10.062;2023-04-19T05:28:07;6.60;99.90
14737;DHT22;7459;53.590;10.062;2023-04-19T05:30:32;6.60;99.90
14737;DHT22;7459;53.590;10.062;2023-04-19T05:32:58;6.60;99.90
14737;DHT22;7459;53.590;10.062;2023-04-19T05:35:24;6.60;99.90
14737;DHT22;7459;53.590;10.062;2023-04-19T05:37:50;6.60;99.90
14737;DHT22;7459;53.590;10.062;2023-04-19T05:40:16;6.60;99.90
14737;DHT22;7459;53.590;10.062;2023-04-19T05:42:41;6.70;99.90
14737;DHT22;7459;53.590;10.062;2023-04-19T05:45:08;6.90;99.90
14737;DHT22;7459;53.590;10.062;2023-04-19T05:47:34;7.00;99.90
14737;DHT22;7459;53.590;10.062;2023-04-19T05:50:00;7.10;99.90
14737;DHT22;7459;53.590;10.062;2023-04-19T05:52:25;7.10;99.90
14737;DHT22;7459;53.590;10.062;2023-04-19T05:54:51;7.20;99.90
14737;DHT22;7459;53.590;10.062;2023-04-19T05:57:17;7.30;99.90
14737;DHT22;7459;53.590;10.062;2023-04-19T05:59:42;7.30;99.90
14737;DHT22;7459;53.590;10.062;2023-04-19T06:02:08;7.50;99.90
14737;DHT22;7459;53.590;10.062;2023-04-19T06:04:35;7.40;99.90
14737;DHT22;7459;53.590;10.062;2023-04-19T06:07:00;7.50;99.90
14737;DHT22;7459;53.590;10.062;2023-04-19T06:09:26;7.50;99.90
14737;DHT22;7459;53.590;10.062;2023-04-19T06:11:51;7.40;99.90
14737;DHT22;7459;53.590;10.062;2023-04-19T06:14:19;7.50;99.90
14737;DHT22;7459;53.590;10.062;2023-04-19T06:16:45;7.40;99.90
14737;DHT22;7459;53.590;10.062;2023-04-19T06:19:10;7.40;99.90
14737;DHT22;7459;53.590;10.062;2023-04-19T06:21:36;7.50;99.90
14737;DHT22;7459;53.590;10.062;2023-04-19T06:24:02;7.50;99.90
14737;DHT22;7459;53.590;10.062;2023-04-19T06:26:28;7.50;99.90
14737;DHT22;7459;53.590;10.062;2023-04-19T06:28:53;7.50;99.90
14737;DHT22;7459;53.590;10.062;2023-04-19T06:31:19;7.60;99.90
14737;DHT22;7459;53.590;10.062;2023-04-19T06:33:45;7.60;99.90
14737;DHT22;7459;53.590;10.062;2023-04-19T06:36:11;7.60;99.90
14737;DHT22;7459;53.590;10.062;2023-04-19T06:38:37;7.60;99.90
14737;DHT22;7459;53.590;10.062;2023-04-19T06:41:03;7.70;99.90
14737;DHT22;7459;53.590;10.062;2023-04-19T06:43:29;7.70;99.90
14737;DHT22;7459;53.590;10.062;2023-04-19T06:45:59;7.80;99.90
14737;DHT22;7459;53.590;10.062;2023-04-19T06:48:24;7.90;99.90
14737;DHT22;7459;53.590;10.062;2023-04-19T06:50:50;8.00;99.90
14737;DHT22;7459;53.590;10.062;2023-04-19T06:53:16;8.00;99.90
14737;DHT22;7459;53.590;10.062;2023-04-19T06:55:42;8.10;99.90
14737;DHT22;7459;53.590;10.062;2023-04-19T06:58:08;8.20;99.90
14737;DHT22;7459;53.590;10.062;2023-04-19T07:00:38;8.20;99.90
14737;DHT22;7459;53.590;10.062;2023-04-19T07:03:03;8.30;99.90
14737;DHT22;7459;53.590;10.062;2023-04-19T07:05:30;8.40;99.90
14737;DHT22;7459;53.590;10.062;2023-04-19T07:07:56;8.40;99.90
14737;DHT22;7459;53.590;10.062;2023-04-19T07:10:22;8.40;99.90
14737;DHT22;7459;53.590;10.062;2023-04-19T07:12:48;8.50;99.90
14737;DHT22;7459;53.590;10.062;2023-04-19T07:15:14;8.50;99.90
14737;DHT22;7459;53.590;10.062;2023-04-19T07:17:39;8.60;99.90
14737;DHT22;7459;53.590;10.062;2023-04-19T07:20:06;8.70;99.90
14737;DHT22;7459;53.590;10.062;2023-04-19T07:22:32;8.70;99.90
14737;DHT22;7459;53.590;10.062;2023-04-19T07:24:57;8.80;99.90
14737;DHT22;7459;53.590;10.062;2023-04-19T07:27:24;8.80;99.90
14737;DHT22;7459;53.590;10.062;2023-04-19T07:29:50;8.90;99.90
14737;DHT22;7459;53.590;10.062;2023-04-19T07:32:16;8.90;99.90
14737;DHT22;7459;53.590;10.062;2023-04-19T07:34:42;8.90;99.90
14737;DHT22;7459;53.590;10.062;2023-04-19T07:37:09;9.00;99.90
14737;DHT22;7459;53.590;10.062;2023-04-19T07:39:35;9.10;99.90
14737;DHT22;7459;53.590;10.062;2023-04-19T07:42:01;9.10;99.90
14737;DHT22;7459;53.590;10.062;2023-04-19T07:44:26;9.20;99.90
14737;DHT22;7459;53.590;10.062;2023-04-19T07:46:52;9.30;99.90
14737;DHT22;7459;53.590;10.062;2023-04-19T07:49:18;9.30;99.90
14737;DHT22;7459;53.590;10.062;2023-04-19T07:51:44;9.40;99.90
14737;DHT22;7459;53.590;10.062;2023-04-19T07:54:10;9.50;99.90
14737;DHT22;7459;53.590;10.062;2023-04-19T07:56:35;9.50;99.90
14737;DHT22;7459;53.590;10.062;2023-04-19T07:59:01;9.60;99.90
14737;DHT22;7459;53.590;10.062;2023-04-19T08:01:28;9.60;99.90
14737;DHT22;7459;53.590;10.062;2023-04-19T08:03:54;9.70;99.90
14737;DHT22;7459;53.590;10.062;2023-04-19T08:06:19;9.70;99.90
14737;DHT22;7459;53.590;10.062;2023-04-19T08:08:48;9.80;99.90
14737;DHT22;7459;53.590;10.062;2023-04-19T08:11:13;9.80;99.90
14737;DHT22;7459;53.590;10.062;2023-04-19T08:13:39;9.80;99.90
14737;DHT22;7459;53.590;10.062;2023-04-19T08:16:05;9.90;99.90
14737;DHT22;7459;53.590;10.062;2023-04-19T08:18:32;10.00;99.90
14737;DHT22;7459;53.590;10.062;2023-04-19T08:20:58;10.10;99.90
14737;DHT22;7459;53.590;10.062;2023-04-19T08:23:24;10.10;99.90
14737;DHT22;7459;53.590;10.062;2023-04-19T08:25:50;10.20;99.90
14737;DHT22;7459;53.590;10.062;2023-04-19T08:28:16;10.20;99.90
14737;DHT22;7459;53.590;10.062;2023-04-19T08:30:42;10.30;99.90
14737;DHT22;7459;53.590;10.062;2023-04-19T08:33:08;10.30;99.90
14737;DHT22;7459;53.590;10.062;2023-04-19T08:35:36;10.30;99.90
14737;DHT22;7459;53.590;10.062;2023-04-19T08:38:03;10.40;99.90
14737;DHT22;7459;53.590;10.062;2023-04-19T08:40:29;10.40;99.90
14737;DHT22;7459;53.590;10.062;2023-04-19T08:42:56;10.40;99.90
14737;DHT22;7459;53.590;10.062;2023-04-19T08:45:26;10.40;99.90
14737;DHT22;7459;53.590;10.062;2023-04-19T08:47:53;10.50;99.90
14737;DHT22;7459;53.590;10.062;2023-04-19T08:50:20;10.60;99.90
14737;DHT22;7459;53.590;10.062;2023-04-19T08:52:46;10.60;99.90
14737;DHT22;7459;53.590;10.062;2023-04-19T08:55:12;10.70;99.90
14737;DHT22;7459;53.590;10.062;2023-04-19T08:57:40;10.70;99.90
14737;DHT22;7459;53.590;10.062;2023-04-19T09:00:06;10.70;99.90
14737;DHT22;7459;53.590;10.062;2023-04-19T09:02:48;10.80;99.90
14737;DHT22;7459;53.590;10.062;2023-04-19T09:05:17;10.80;99.90
14737;DHT22;7459;53.590;10.062;2023-04-19T09:07:45;10.90;99.90
14737;DHT22;7459;53.590;10.062;2023-04-19T09:10:13;11.00;99.90
14737;DHT22;7459;53.590;10.062;2023-04-19T09:13:01;11.00;99.90
14737;DHT22;7459;53.590;10.062;2023-04-19T09:15:37;11.10;99.80
14737;DHT22;7459;53.590;10.062;2023-04-19T09:18:06;11.20;99.90
14737;DHT22;7459;53.590;10.062;2023-04-19T09:20:38;11.20;99.90
14737;DHT22;7459;53.590;10.062;2023-04-19T09:23:07;11.20;99.60
14737;DHT22;7459;53.590;10.062;2023-04-19T09:25:36;11.30;98.40
14737;DHT22;7459;53.590;10.062;2023-04-19T09:28:08;11.30;98.30
14737;DHT22;7459;53.590;10.062;2023-04-19T09:30:38;11.30;97.10
14737;DHT22;7459;53.590;10.062;2023-04-19T09:33:06;11.30;96.60
14737;DHT22;7459;53.590;10.062;2023-04-19T09:35:45;11.40;96.90
14737;DHT22;7459;53.590;10.062;2023-04-19T09:38:14;11.40;97.90
14737;DHT22;7459;53.590;10.062;2023-04-19T09:40:40;11.50;98.30
14737;DHT22;7459;53.590;10.062;2023-04-19T09:43:07;11.50;96.80
14737;DHT22;7459;53.590;10.062;2023-04-19T09:45:43;11.50;97.10
14737;DHT22;7459;53.590;10.062;2023-04-19T09:48:11;11.60;96.40
14737;DHT22;7459;53.590;10.062;2023-04-19T09:51:00;11.60;94.60
14737;DHT22;7459;53.590;10.062;2023-04-19T09:53:28;11.60;93.50
14737;DHT22;7459;53.590;10.062;2023-04-19T09:55:54;11.60;94.30
14737;DHT22;7459;53.590;10.062;2023-04-19T09:58:21;11.70;92.90
14737;DHT22;7459;53.590;10.062;2023-04-19T10:00:47;11.70;93.00
14737;DHT22;7459;53.590;10.062;2023-04-19T10:03:15;11.70;93.90
14737;DHT22;7459;53.590;10.062;2023-04-19T10:05:43;11.70;91.80
14737;DHT22;7459;53.590;10.062;2023-04-19T10:08:11;11.70;90.40
14737;DHT22;7459;53.590;10.062;2023-04-19T10:10:39;11.60;89.10
14737;DHT22;7459;53.590;10.062;2023-04-19T10:13:07;11.70;89.30
14737;DHT22;7459;53.590;10.062;2023-04-19T10:15:36;11.80;87.70
14737;DHT22;7459;53.590;10.062;2023-04-19T10:18:04;11.80;85.50
14737;DHT22;7459;53.590;10.062;2023-04-19T10:20:46;11.80;86.50
14737;DHT22;7459;53.590;10.062;2023-04-19T10:23:14;11.80;85.90
14737;DHT22;7459;53.590;10.062;2023-04-19T10:25:45;11.90;86.30
14737;DHT22;7459;53.590;10.062;2023-04-19T10:28:16;11.90;84.50
14737;DHT22;7459;53.590;10.062;2023-04-19T10:31:10;11.90;83.50
14737;DHT22;7459;53.590;10.062;2023-04-19T10:33:37;12.00;83.30
14737;DHT22;7459;53.590;10.062;2023-04-19T10:36:06;12.00;82.70
14737;DHT22;7459;53.590;10.062;2023-04-19T10:38:40;12.10;84.20
14737;DHT22;7459;53.590;10.062;2023-04-19T10:41:17;12.10;81.70
14737;DHT22;7459;53.590;10.062;2023-04-19T10:49:00;12.30;82.30
14737;DHT22;7459;53.590;10.062;2023-04-19T10:51:37;12.30;77.80
14737;DHT22;7459;53.590;10.062;2023-04-19T10:59:30;12.40;76.90
14737;DHT22;7459;53.590;10.062;2023-04-19T11:01:58;12.40;75.30
14737;DHT22;7459;53.590;10.062;2023-04-19T11:07:05;12.50;75.30
14737;DHT22;7459;53.590;10.062;2023-04-19T11:09:35;12.50;73.10
14737;DHT22;7459;53.590;10.062;2023-04-19T11:14:46;12.70;73.40
14737;DHT22;7459;53.590;10.062;2023-04-19T11:17:17;12.70;71.00
14737;DHT22;7459;53.590;10.062;2023-04-19T11:20:01;12.60;70.90
14737;DHT22;7459;53.590;10.062;2023-04-19T11:22:39;12.60;70.40
14737;DHT22;7459;53.590;10.062;2023-04-19T11:27:42;12.70;70.70
14737;DHT22;7459;53.590;10.062;2023-04-19T11:30:18;12.80;70.90
14737;DHT22;7459;53.590;10.062;2023-04-19T11:32:48;12.90;70.50
14737;DHT22;7459;53.590;10.062;2023-04-19T11:35:20;13.00;72.40
14737;DHT22;7459;53.590;10.062;2023-04-19T11:37:47;13.10;71.60
14737;DHT22;7459;53.590;10.062;2023-04-19T11:40:15;13.10;69.90
14737;DHT22;7459;53.590;10.062;2023-04-19T11:42:41;13.00;69.70
14737;DHT22;7459;53.590;10.062;2023-04-19T11:45:08;13.20;70.80
14737;DHT22;7459;53.590;10.062;2023-04-19T11:47:35;13.20;69.70
14737;DHT22;7459;53.590;10.062;2023-04-19T11:50:31;13.20;67.30
14737;DHT22;7459;53.590;10.062;2023-04-19T11:53:17;13.00;67.90
14737;DHT22;7459;53.590;10.062;2023-04-19T11:55:56;13.10;68.50
14737;DHT22;7459;53.590;10.062;2023-04-19T11:58:37;13.20;67.00
14737;DHT22;7459;53.590;10.062;2023-04-19T12:01:07;13.20;66.10
14737;DHT22;7459;53.590;10.062;2023-04-19T12:03:39;13.10;66.80
14737;DHT22;7459;53.590;10.062;2023-04-19T12:06:11;13.20;66.40
14737;DHT22;7459;53.590;10.062;2023-04-19T12:08:45;13.20;64.20
14737;DHT22;7459;53.590;10.062;2023-04-19T12:11:12;13.20;66.70
14737;DHT22;7459;53.590;10.062;2023-04-19T12:13:39;13.30;66.20
14737;DHT22;7459;53.590;10.062;2023-04-19T12:16:06;13.30;67.90
14737;DHT22;7459;53.590;10.062;2023-04-19T12:18:49;13.40;64.20
14737;DHT22;7459;53.590;10.062;2023-04-19T12:21:26;13.50;67.20
14737;DHT22;7459;53.590;10.062;2023-04-19T12:23:57;13.50;65.70
14737;DHT22;7459;53.590;10.062;2023-04-19T12:26:25;13.70;66.70
14737;DHT22;7459;53.590;10.062;2023-04-19T12:28:53;13.80;66.30
14737;DHT22;7459;53.590;10.062;2023-04-19T12:31:19;13.80;64.50
14737;DHT22;7459;53.590;10.062;2023-04-19T12:33:45;13.80;63.10
14737;DHT22;7459;53.590;10.062;2023-04-19T12:36:11;14.00;65.50
14737;DHT22;7459;53.590;10.062;2023-04-19T12:38:37;14.00;66.00
14737;DHT22;7459;53.590;10.062;2023-04-19T12:41:03;14.20;67.60
14737;DHT22;7459;53.590;10.062;2023-04-19T12:43:28;14.10;66.90
14737;DHT22;7459;53.590;10.062;2023-04-19T12:45:56;14.10;66.20
14737;DHT22;7459;53.590;10.062;2023-04-19T12:48:23;14.00;64.40
14737;DHT22;7459;53.590;10.062;2023-04-19T12:50:49;14.10;67.00
14737;DHT22;7459;53.590;10.062;2023-04-19T12:53:15;14.10;63.80
14737;DHT22;7459;53.590;10.062;2023-04-19T12:55:40;14.10;63.90
14737;DHT22;7459;53.590;10.062;2023-04-19T12:58:06;14.00;63.30
14737;DHT22;7459;53.590;10.062;2023-04-19T13:00:32;14.00;65.70
14737;DHT22;7459;53.590;10.062;2023-04-19T13:02:57;14.00;66.20
14737;DHT22;7459;53.590;10.062;2023-04-19T13:05:23;13.90;66.10
14737;DHT22;7459;53.590;10.062;2023-04-19T13:07:49;14.00;66.90
14737;DHT22;7459;53.590;10.062;2023-04-19T13:10:15;14.10;67.50
14737;DHT22;7459;53.590;10.062;2023-04-19T13:12:40;14.20;65.10
14737;DHT22;7459;53.590;10.062;2023-04-19T13:15:07;14.30;64.60
14737;DHT22;7459;53.590;10.062;2023-04-19T13:17:34;14.40;65.00
14737;DHT22;7459;53.590;10.062;2023-04-19T13:20:01;14.10;63.30
14737;DHT22;7459;53.590;10.062;2023-04-19T13:22:26;14.20;64.60
14737;DHT22;7459;53.590;10.062;2023-04-19T13:24:52;14.30;65.80
14737;DHT22;7459;53.590;10.062;2023-04-19T13:27:18;14.30;61.00
14737;DHT22;7459;53.590;10.062;2023-04-19T13:29:43;14.30;60.00
14737;DHT22;7459;53.590;10.062;2023-04-19T13:32:10;14.30;60.70
14737;DHT22;7459;53.590;10.062;2023-04-19T13:34:37;14.30;61.50
14737;DHT22;7459;53.590;10.062;2023-04-19T13:37:03;14.30;60.80
14737;DHT22;7459;53.590;10.062;2023-04-19T13:39:29;14.40;63.20
14737;DHT22;7459;53.590;10.062;2023-04-19T13:41:54;14.30;60.80
14737;DHT22;7459;53.590;10.062;2023-04-19T13:44:21;14.20;59.10
14737;DHT22;7459;53.590;10.062;2023-04-19T13:46:46;13.90;59.50
14737;DHT22;7459;53.590;10.062;2023-04-19T13:49:12;14.00;60.70
14737;DHT22;7459;53.590;10.062;2023-04-19T13:51:38;13.80;58.90
14737;DHT22;7459;53.590;10.062;2023-04-19T13:54:03;13.90;59.90
14737;DHT22;7459;53.590;10.062;2023-04-19T13:56:29;13.90;59.60
14737;DHT22;7459;53.590;10.062;2023-04-19T13:58:55;14.10;59.90
14737;DHT22;7459;53.590;10.062;2023-04-19T14:01:20;14.10;60.10
14737;DHT22;7459;53.590;10.062;2023-04-19T14:03:46;14.20;60.60
14737;DHT22;7459;53.590;10.062;2023-04-19T14:06:12;14.20;60.30
14737;DHT22;7459;53.590;10.062;2023-04-19T14:08:37;14.10;60.40
14737;DHT22;7459;53.590;10.062;2023-04-19T14:11:03;14.00;58.40
14737;DHT22;7459;53.590;10.062;2023-04-19T14:13:29;13.90;59.00
14737;DHT22;7459;53.590;10.062;2023-04-19T14:15:55;13.80;58.70
14737;DHT22;7459;53.590;10.062;2023-04-19T14:18:21;13.90;59.70
14737;DHT22;7459;53.590;10.062;2023-04-19T14:20:46;14.00;60.40
14737;DHT22;7459;53.590;10.062;2023-04-19T14:23:12;14.10;59.50
14737;DHT22;7459;53.590;10.062;2023-04-19T14:25:38;14.10;59.20
14737;DHT22;7459;53.590;10.062;2023-04-19T14:28:04;14.10;58.30
14737;DHT22;7459;53.590;10.062;2023-04-19T14:30:30;13.80;57.30
14737;DHT22;7459;53.590;10.062;2023-04-19T14:32:55;13.70;58.20
14737;DHT22;7459;53.590;10.062;2023-04-19T14:35:21;13.70;58.30
14737;DHT22;7459;53.590;10.062;2023-04-19T14:37:47;13.60;57.70
14737;DHT22;7459;53.590;10.062;2023-04-19T14:40:12;13.70;58.00
14737;DHT22;7459;53.590;10.062;2023-04-19T14:42:38;13.70;57.30
14737;DHT22;7459;53.590;10.062;2023-04-19T14:45:05;13.70;57.70
14737;DHT22;7459;53.590;10.062;2023-04-19T14:47:31;13.60;58.00
14737;DHT22;7459;53.590;10.062;2023-04-19T14:49:57;13.70;58.90
14737;DHT22;7459;53.590;10.062;2023-04-19T14:52:22;13.80;58.60
14737;DHT22;7459;53.590;10.062;2023-04-19T14:54:48;14.00;58.40
14737;DHT22;7459;53.590;10.062;2023-04-19T14:57:14;14.00;57.70
14737;DHT22;7459;53.590;10.062;2023-04-19T14:59:40;14.10;58.90
14737;DHT22;7459;53.590;10.062;2023-04-19T15:02:06;14.10;57.00
14737;DHT22;7459;53.590;10.062;2023-04-19T15:04:35;14.00;56.20
14737;DHT22;7459;53.590;10.062;2023-04-19T15:07:02;14.00;56.60
14737;DHT22;7459;53.590;10.062;2023-04-19T15:09:28;14.10;57.00
14737;DHT22;7459;53.590;10.062;2023-04-19T15:11:54;14.00;57.30
14737;DHT22;7459;53.590;10.062;2023-04-19T15:14:20;13.80;55.90
14737;DHT22;7459;53.590;10.062;2023-04-19T15:16:45;13.60;55.10
14737;DHT22;7459;53.590;10.062;2023-04-19T15:19:11;13.70;54.70
14737;DHT22;7459;53.590;10.062;2023-04-19T15:21:37;13.70;55.30
14737;DHT22;7459;53.590;10.062;2023-04-19T15:24:04;13.80;56.00
14737;DHT22;7459;53.590;10.062;2023-04-19T15:26:30;13.90;57.20
14737;DHT22;7459;53.590;10.062;2023-04-19T15:28:56;14.00;57.10
14737;DHT22;7459;53.590;10.062;2023-04-19T15:31:23;14.00;55.90
14737;DHT22;7459;53.590;10.062;2023-04-19T15:33:49;14.10;55.30
14737;DHT22;7459;53.590;10.062;2023-04-19T15:36:15;14.20;55.50
14737;DHT22;7459;53.590;10.062;2023-04-19T15:38:41;14.30;54.80
14737;DHT22;7459;53.590;10.062;2023-04-19T15:41:06;14.10;54.50
14737;DHT22;7459;53.590;10.062;2023-04-19T15:43:32;14.20;54.60
14737;DHT22;7459;53.590;10.062;2023-04-19T15:45:58;14.20;53.80
14737;DHT22;7459;53.590;10.062;2023-04-19T15:48:24;14.30;54.50
14737;DHT22;7459;53.590;10.062;2023-04-19T15:50:50;14.30;54.30
14737;DHT22;7459;53.590;10.062;2023-04-19T15:53:16;14.40;54.60
14737;DHT22;7459;53.590;10.062;2023-04-19T15:55:42;14.40;54.60
14737;DHT22;7459;53.590;10.062;2023-04-19T15:58:08;14.40;55.20